sensor_id;sensor_type;location;lat;lon;timestamp;P1;durP1;ratioP1;P2;durP2;ratioP2
59830;SDS011;45711;50.108;13.712;2022-11-23T00:01:11;74.18;;;24.52;;
59830;SDS011;45711;50.108;13.712;2022-11-23T00:03:38;62.35;;;23.23;;
59830;SDS011;45711;50.108;13.712;2022-11-23T00:06:05;74.03;;;26.00;;
59830;SDS011;45711;50.108;13.712;2022-11-23T00:08:30;69.72;;;23.17;;
59830;SDS011;45711;50.108;13.712;2022-11-23T00:10:56;70.35;;;23.83;;
59830;SDS011;45711;50.108;13.712;2022-11-23T00:13:22;74.63;;;24.90;;
59830;SDS011;45711;50.108;13.712;2022-11-23T00:15:47;70.22;;;22.63;;
59830;SDS011;45711;50.108;13.712;2022-11-23T00:18:13;71.30;;;24.38;;
59830;SDS011;45711;50.108;13.712;2022-11-23T00:20:39;64.40;;;22.38;;
59830;SDS011;45711;50.108;13.712;2022-11-23T00:23:06;70.93;;;22.50;;
59830;SDS011;45711;50.108;13.712;2022-11-23T00:25:31;72.60;;;24.60;;
59830;SDS011;45711;50.108;13.712;2022-11-23T00:27:58;68.82;;;24.13;;
59830;SDS011;45711;50.108;13.712;2022-11-23T00:30:24;77.88;;;23.67;;
59830;SDS011;45711;50.108;13.712;2022-11-23T00:32:49;64.05;;;21.38;;
59830;SDS011;45711;50.108;13.712;2022-11-23T00:35:15;64.30;;;22.15;;
59830;SDS011;45711;50.108;13.712;2022-11-23T00:37:40;74.15;;;23.20;;
59830;SDS011;45711;50.108;13.712;2022-11-23T00:40:08;71.32;;;24.73;;
59830;SDS011;45711;50.108;13.712;2022-11-23T00:42:34;73.75;;;24.98;;
59830;SDS011;45711;50.108;13.712;2022-11-23T00:45:00;70.32;;;23.77;;
59830;SDS011;45711;50.108;13.712;2022-11-23T00:47:25;74.28;;;23.02;;
59830;SDS011;45711;50.108;13.712;2022-11-23T00:49:51;69.10;;;22.05;;
59830;SDS011;45711;50.108;13.712;2022-11-23T00:52:16;79.13;;;23.10;;
59830;SDS011;45711;50.108;13.712;2022-11-23T00:54:42;69.72;;;23.02;;
59830;SDS011;45711;50.108;13.712;2022-11-23T00:57:09;82.10;;;23.38;;
59830;SDS011;45711;50.108;13.712;2022-11-23T00:59:34;83.05;;;24.13;;
59830;SDS011;45711;50.108;13.712;2022-11-23T01:02:00;87.68;;;24.77;;
59830;SDS011;45711;50.108;13.712;2022-11-23T01:04:25;83.60;;;23.05;;
59830;SDS011;45711;50.108;13.712;2022-11-23T01:06:53;77.78;;;22.50;;
59830;SDS011;45711;50.108;13.712;2022-11-23T01:09:19;79.68;;;23.88;;
59830;SDS011;45711;50.108;13.712;2022-11-23T01:11:49;81.63;;;24.08;;
59830;SDS011;45711;50.108;13.712;2022-11-23T01:14:16;72.68;;;24.05;;
59830;SDS011;45711;50.108;13.712;2022-11-23T01:16:41;74.95;;;23.48;;
59830;SDS011;45711;50.108;13.712;2022-11-23T01:19:09;81.50;;;24.52;;
59830;SDS011;45711;50.108;13.712;2022-11-23T01:21:36;82.65;;;24.45;;
59830;SDS011;45711;50.108;13.712;2022-11-23T01:24:03;75.35;;;23.50;;
59830;SDS011;45711;50.108;13.712;2022-11-23T01:26:29;77.63;;;23.10;;
59830;SDS011;45711;50.108;13.712;2022-11-23T01:28:54;80.80;;;24.13;;
59830;SDS011;45711;50.108;13.712;2022-11-23T01:31:22;77.90;;;23.67;;
59830;SDS011;45711;50.108;13.712;2022-11-23T01:33:51;76.60;;;23.45;;
59830;SDS011;45711;50.108;13.712;2022-11-23T01:36:18;83.88;;;24.65;;
59830;SDS011;45711;50.108;13.712;2022-11-23T01:38:45;83.20;;;24.73;;
59830;SDS011;45711;50.108;13.712;2022-11-23T01:41:13;94.05;;;26.02;;
59830;SDS011;45711;50.108;13.712;2022-11-23T01:43:39;83.60;;;24.95;;
59830;SDS011;45711;50.108;13.712;2022-11-23T01:46:06;91.78;;;25.70;;
59830;SDS011;45711;50.108;13.712;2022-11-23T01:48:35;83.55;;;25.42;;
59830;SDS011;45711;50.108;13.712;2022-11-23T01:51:05;95.45;;;26.05;;
59830;SDS011;45711;50.108;13.712;2022-11-23T01:53:34;86.53;;;25.33;;
59830;SDS011;45711;50.108;13.712;2022-11-23T01:56:01;103.63;;;26.67;;
59830;SDS011;45711;50.108;13.712;2022-11-23T01:58:30;96.63;;;26.83;;
59830;SDS011;45711;50.108;13.712;2022-11-23T02:01:01;87.70;;;27.45;;
59830;SDS011;45711;50.108;13.712;2022-11-23T02:03:26;93.38;;;25.38;;
59830;SDS011;45711;50.108;13.712;2022-11-23T02:05:56;104.82;;;26.35;;
59830;SDS011;45711;50.108;13.712;2022-11-23T02:08:27;86.72;;;26.40;;
59830;SDS011;45711;50.108;13.712;2022-11-23T02:10:54;106.57;;;27.50;;
59830;SDS011;45711;50.108;13.712;2022-11-23T02:13:20;103.22;;;27.48;;
59830;SDS011;45711;50.108;13.712;2022-11-23T02:15:47;105.95;;;27.85;;
59830;SDS011;45711;50.108;13.712;2022-11-23T02:18:14;102.00;;;27.80;;
59830;SDS011;45711;50.108;13.712;2022-11-23T02:20:43;99.70;;;27.15;;
59830;SDS011;45711;50.108;13.712;2022-11-23T02:23:13;106.18;;;26.67;;
59830;SDS011;45711;50.108;13.712;2022-11-23T02:28:33;85.55;;;25.42;;
59830;SDS011;45711;50.108;13.712;2022-11-23T02:31:03;90.18;;;26.25;;
59830;SDS011;45711;50.108;13.712;2022-11-23T02:33:29;96.13;;;24.80;;
59830;SDS011;45711;50.108;13.712;2022-11-23T02:35:55;87.43;;;24.83;;
59830;SDS011;45711;50.108;13.712;2022-11-23T02:38:23;82.45;;;23.10;;
59830;SDS011;45711;50.108;13.712;2022-11-23T02:40:50;71.10;;;23.08;;
59830;SDS011;45711;50.108;13.712;2022-11-23T02:43:17;70.82;;;23.20;;
59830;SDS011;45711;50.108;13.712;2022-11-23T02:45:45;74.05;;;23.38;;
59830;SDS011;45711;50.108;13.712;2022-11-23T02:48:14;77.53;;;23.63;;
59830;SDS011;45711;50.108;13.712;2022-11-23T02:50:39;79.53;;;23.45;;
59830;SDS011;45711;50.108;13.712;2022-11-23T02:53:05;76.68;;;22.15;;
59830;SDS011;45711;50.108;13.712;2022-11-23T02:55:31;71.70;;;22.83;;
59830;SDS011;45711;50.108;13.712;2022-11-23T02:57:56;74.47;;;23.08;;
59830;SDS011;45711;50.108;13.712;2022-11-23T03:00:23;73.35;;;22.95;;
59830;SDS011;45711;50.108;13.712;2022-11-23T03:02:49;67.53;;;21.50;;
59830;SDS011;45711;50.108;13.712;2022-11-23T03:05:14;71.22;;;22.95;;
59830;SDS011;45711;50.108;13.712;2022-11-23T03:07:40;72.15;;;22.38;;
59830;SDS011;45711;50.108;13.712;2022-11-23T03:10:06;67.10;;;22.70;;
59830;SDS011;45711;50.108;13.712;2022-11-23T03:12:32;57.85;;;21.52;;
59830;SDS011;45711;50.108;13.712;2022-11-23T03:14:58;71.18;;;21.85;;
59830;SDS011;45711;50.108;13.712;2022-11-23T03:17:25;75.15;;;23.77;;
59830;SDS011;45711;50.108;13.712;2022-11-23T03:19:52;74.88;;;22.70;;
59830;SDS011;45711;50.108;13.712;2022-11-23T03:22:17;67.25;;;22.80;;
59830;SDS011;45711;50.108;13.712;2022-11-23T03:24:43;73.28;;;23.35;;
59830;SDS011;45711;50.108;13.712;2022-11-23T03:27:08;68.00;;;21.85;;
59830;SDS011;45711;50.108;13.712;2022-11-23T03:29:34;66.28;;;22.08;;
59830;SDS011;45711;50.108;13.712;2022-11-23T03:31:59;64.00;;;20.73;;
59830;SDS011;45711;50.108;13.712;2022-11-23T03:34:26;69.60;;;22.83;;
59830;SDS011;45711;50.108;13.712;2022-11-23T03:36:52;63.72;;;22.40;;
59830;SDS011;45711;50.108;13.712;2022-11-23T03:39:17;69.10;;;22.88;;
59830;SDS011;45711;50.108;13.712;2022-11-23T03:41:43;74.32;;;22.95;;
59830;SDS011;45711;50.108;13.712;2022-11-23T03:44:09;66.25;;;22.15;;
59830;SDS011;45711;50.108;13.712;2022-11-23T03:46:34;78.20;;;23.83;;
59830;SDS011;45711;50.108;13.712;2022-11-23T03:49:00;82.32;;;27.05;;
59830;SDS011;45711;50.108;13.712;2022-11-23T03:51:27;72.43;;;24.17;;
59830;SDS011;45711;50.108;13.712;2022-11-23T03:53:52;76.30;;;25.80;;
59830;SDS011;45711;50.108;13.712;2022-11-23T03:56:18;73.15;;;22.65;;
59830;SDS011;45711;50.108;13.712;2022-11-23T03:58:44;71.97;;;23.23;;
59830;SDS011;45711;50.108;13.712;2022-11-23T04:01:09;69.10;;;23.10;;
59830;SDS011;45711;50.108;13.712;2022-11-23T04:03:35;70.97;;;24.23;;
59830;SDS011;45711;50.108;13.712;2022-11-23T04:06:00;69.95;;;24.63;;
59830;SDS011;45711;50.108;13.712;2022-11-23T04:08:27;66.97;;;24.38;;
59830;SDS011;45711;50.108;13.712;2022-11-23T04:10:55;76.65;;;23.33;;
59830;SDS011;45711;50.108;13.712;2022-11-23T04:13:20;71.22;;;23.98;;
59830;SDS011;45711;50.108;13.712;2022-11-23T04:15:46;71.15;;;24.30;;
59830;SDS011;45711;50.108;13.712;2022-11-23T04:18:11;69.00;;;24.65;;
59830;SDS011;45711;50.108;13.712;2022-11-23T04:20:37;73.63;;;23.42;;
59830;SDS011;45711;50.108;13.712;2022-11-23T04:23:02;71.25;;;22.98;;
59830;SDS011;45711;50.108;13.712;2022-11-23T04:25:29;68.78;;;24.10;;
59830;SDS011;45711;50.108;13.712;2022-11-23T04:27:55;70.38;;;23.45;;
59830;SDS011;45711;50.108;13.712;2022-11-23T04:30:20;78.90;;;23.27;;
59830;SDS011;45711;50.108;13.712;2022-11-23T04:32:46;70.53;;;22.98;;
59830;SDS011;45711;50.108;13.712;2022-11-23T04:35:12;71.00;;;23.15;;
59830;SDS011;45711;50.108;13.712;2022-11-23T04:37:37;68.00;;;23.95;;
59830;SDS011;45711;50.108;13.712;2022-11-23T04:40:03;64.97;;;23.52;;
59830;SDS011;45711;50.108;13.712;2022-11-23T04:42:31;74.95;;;24.65;;
59830;SDS011;45711;50.108;13.712;2022-11-23T04:44:57;70.38;;;22.75;;
59830;SDS011;45711;50.108;13.712;2022-11-23T04:47:22;70.95;;;21.90;;
59830;SDS011;45711;50.108;13.712;2022-11-23T04:49:48;59.63;;;20.98;;
59830;SDS011;45711;50.108;13.712;2022-11-23T04:52:13;72.50;;;22.00;;
59830;SDS011;45711;50.108;13.712;2022-11-23T04:54:39;60.08;;;21.25;;
59830;SDS011;45711;50.108;13.712;2022-11-23T04:57:05;63.72;;;21.52;;
59830;SDS011;45711;50.108;13.712;2022-11-23T04:59:31;62.05;;;20.05;;
59830;SDS011;45711;50.108;13.712;2022-11-23T05:01:57;66.15;;;22.55;;
59830;SDS011;45711;50.108;13.712;2022-11-23T05:04:23;62.80;;;20.45;;
59830;SDS011;45711;50.108;13.712;2022-11-23T05:06:48;57.33;;;20.17;;
59830;SDS011;45711;50.108;13.712;2022-11-23T05:09:14;68.85;;;20.70;;
59830;SDS011;45711;50.108;13.712;2022-11-23T05:11:39;58.97;;;21.33;;
59830;SDS011;45711;50.108;13.712;2022-11-23T05:14:05;61.78;;;21.55;;
59830;SDS011;45711;50.108;13.712;2022-11-23T05:16:32;77.80;;;21.42;;
59830;SDS011;45711;50.108;13.712;2022-11-23T05:18:58;83.28;;;22.00;;
59830;SDS011;45711;50.108;13.712;2022-11-23T05:21:23;86.32;;;21.83;;
59830;SDS011;45711;50.108;13.712;2022-11-23T05:23:49;66.43;;;20.45;;
59830;SDS011;45711;50.108;13.712;2022-11-23T05:26:14;66.43;;;20.83;;
59830;SDS011;45711;50.108;13.712;2022-11-23T05:28:40;61.00;;;21.40;;
59830;SDS011;45711;50.108;13.712;2022-11-23T05:31:05;61.72;;;21.27;;
59830;SDS011;45711;50.108;13.712;2022-11-23T05:33:33;52.97;;;20.80;;
59830;SDS011;45711;50.108;13.712;2022-11-23T05:35:59;57.90;;;20.92;;
59830;SDS011;45711;50.108;13.712;2022-11-23T05:38:25;59.38;;;21.67;;
59830;SDS011;45711;50.108;13.712;2022-11-23T05:40:50;51.67;;;20.85;;
59830;SDS011;45711;50.108;13.712;2022-11-23T05:43:16;64.07;;;20.95;;
59830;SDS011;45711;50.108;13.712;2022-11-23T05:45:41;57.15;;;21.02;;
59830;SDS011;45711;50.108;13.712;2022-11-23T05:48:08;57.22;;;20.13;;
59830;SDS011;45711;50.108;13.712;2022-11-23T05:50:35;58.88;;;20.90;;
59830;SDS011;45711;50.108;13.712;2022-11-23T05:53:00;52.53;;;20.35;;
59830;SDS011;45711;50.108;13.712;2022-11-23T05:55:26;58.03;;;21.30;;
59830;SDS011;45711;50.108;13.712;2022-11-23T05:57:52;62.05;;;20.45;;
59830;SDS011;45711;50.108;13.712;2022-11-23T06:00:18;73.55;;;21.90;;
59830;SDS011;45711;50.108;13.712;2022-11-23T06:02:44;70.00;;;22.10;;
59830;SDS011;45711;50.108;13.712;2022-11-23T06:05:10;77.03;;;20.75;;
59830;SDS011;45711;50.108;13.712;2022-11-23T06:07:37;89.07;;;22.13;;
59830;SDS011;45711;50.108;13.712;2022-11-23T06:10:04;71.65;;;21.23;;
59830;SDS011;45711;50.108;13.712;2022-11-23T06:12:31;61.92;;;19.95;;
59830;SDS011;45711;50.108;13.712;2022-11-23T06:14:57;59.13;;;19.02;;
59830;SDS011;45711;50.108;13.712;2022-11-23T06:17:22;51.50;;;18.33;;
59830;SDS011;45711;50.108;13.712;2022-11-23T06:19:48;51.40;;;18.73;;
59830;SDS011;45711;50.108;13.712;2022-11-23T06:22:14;49.03;;;18.73;;
59830;SDS011;45711;50.108;13.712;2022-11-23T06:24:41;50.03;;;17.30;;
59830;SDS011;45711;50.108;13.712;2022-11-23T06:27:07;65.90;;;19.08;;
59830;SDS011;45711;50.108;13.712;2022-11-23T06:29:33;53.40;;;18.08;;
59830;SDS011;45711;50.108;13.712;2022-11-23T06:31:59;50.20;;;19.40;;
59830;SDS011;45711;50.108;13.712;2022-11-23T06:34:25;45.40;;;16.77;;
59830;SDS011;45711;50.108;13.712;2022-11-23T06:36:50;38.35;;;14.52;;
59830;SDS011;45711;50.108;13.712;2022-11-23T06:39:16;43.38;;;16.33;;
59830;SDS011;45711;50.108;13.712;2022-11-23T06:41:44;64.82;;;22.92;;
59830;SDS011;45711;50.108;13.712;2022-11-23T06:44:09;50.28;;;16.98;;
59830;SDS011;45711;50.108;13.712;2022-11-23T06:46:35;40.47;;;16.92;;
59830;SDS011;45711;50.108;13.712;2022-11-23T06:49:00;47.97;;;18.92;;
59830;SDS011;45711;50.108;13.712;2022-11-23T06:51:26;50.63;;;17.92;;
59830;SDS011;45711;50.108;13.712;2022-11-23T06:53:51;37.85;;;15.70;;
59830;SDS011;45711;50.108;13.712;2022-11-23T06:56:17;47.67;;;17.10;;
59830;SDS011;45711;50.108;13.712;2022-11-23T06:58:44;59.10;;;17.25;;
59830;SDS011;45711;50.108;13.712;2022-11-23T07:01:09;51.90;;;18.02;;
59830;SDS011;45711;50.108;13.712;2022-11-23T07:03:35;49.80;;;17.48;;
59830;SDS011;45711;50.108;13.712;2022-11-23T07:06:03;48.13;;;17.23;;
59830;SDS011;45711;50.108;13.712;2022-11-23T07:08:29;43.22;;;16.52;;
59830;SDS011;45711;50.108;13.712;2022-11-23T07:10:58;51.55;;;19.83;;
59830;SDS011;45711;50.108;13.712;2022-11-23T07:13:24;56.53;;;18.40;;
59830;SDS011;45711;50.108;13.712;2022-11-23T07:15:51;49.95;;;17.88;;
59830;SDS011;45711;50.108;13.712;2022-11-23T07:18:16;50.50;;;17.80;;
59830;SDS011;45711;50.108;13.712;2022-11-23T07:20:42;44.58;;;16.08;;
59830;SDS011;45711;50.108;13.712;2022-11-23T07:23:10;40.58;;;16.58;;
59830;SDS011;45711;50.108;13.712;2022-11-23T07:25:36;42.45;;;17.70;;
59830;SDS011;45711;50.108;13.712;2022-11-23T07:28:03;46.45;;;17.63;;
59830;SDS011;45711;50.108;13.712;2022-11-23T07:30:31;42.88;;;16.20;;
59830;SDS011;45711;50.108;13.712;2022-11-23T07:32:59;44.75;;;16.45;;
59830;SDS011;45711;50.108;13.712;2022-11-23T07:35:25;41.13;;;16.13;;
59830;SDS011;45711;50.108;13.712;2022-11-23T07:37:51;44.53;;;16.70;;
59830;SDS011;45711;50.108;13.712;2022-11-23T07:40:17;47.92;;;18.15;;
59830;SDS011;45711;50.108;13.712;2022-11-23T07:42:42;46.80;;;19.52;;
59830;SDS011;45711;50.108;13.712;2022-11-23T07:45:08;48.92;;;18.40;;
59830;SDS011;45711;50.108;13.712;2022-11-23T07:47:35;47.50;;;17.77;;
59830;SDS011;45711;50.108;13.712;2022-11-23T07:50:02;44.42;;;15.52;;
59830;SDS011;45711;50.108;13.712;2022-11-23T07:52:28;50.53;;;16.65;;
59830;SDS011;45711;50.108;13.712;2022-11-23T07:54:53;48.92;;;16.58;;
59830;SDS011;45711;50.108;13.712;2022-11-23T07:57:19;51.70;;;16.63;;
59830;SDS011;45711;50.108;13.712;2022-11-23T07:59:45;54.95;;;17.38;;
59830;SDS011;45711;50.108;13.712;2022-11-23T08:02:10;63.67;;;19.80;;
59830;SDS011;45711;50.108;13.712;2022-11-23T08:04:38;55.08;;;17.75;;
59830;SDS011;45711;50.108;13.712;2022-11-23T08:07:05;54.40;;;17.45;;
59830;SDS011;45711;50.108;13.712;2022-11-23T08:09:31;46.88;;;17.20;;
59830;SDS011;45711;50.108;13.712;2022-11-23T08:11:57;49.05;;;17.60;;
59830;SDS011;45711;50.108;13.712;2022-11-23T08:14:22;42.80;;;15.30;;
59830;SDS011;45711;50.108;13.712;2022-11-23T08:16:48;47.17;;;16.48;;
59830;SDS011;45711;50.108;13.712;2022-11-23T08:19:15;52.63;;;17.67;;
59830;SDS011;45711;50.108;13.712;2022-11-23T08:21:40;56.00;;;18.25;;
59830;SDS011;45711;50.108;13.712;2022-11-23T08:24:07;53.17;;;19.15;;
59830;SDS011;45711;50.108;13.712;2022-11-23T08:26:33;56.22;;;20.30;;
59830;SDS011;45711;50.108;13.712;2022-11-23T08:28:59;57.53;;;19.48;;
59830;SDS011;45711;50.108;13.712;2022-11-23T08:31:24;58.00;;;19.58;;
59830;SDS011;45711;50.108;13.712;2022-11-23T08:33:50;55.92;;;19.27;;
59830;SDS011;45711;50.108;13.712;2022-11-23T08:36:15;55.40;;;19.35;;
59830;SDS011;45711;50.108;13.712;2022-11-23T08:38:41;55.95;;;19.52;;
59830;SDS011;45711;50.108;13.712;2022-11-23T08:41:08;52.97;;;19.13;;
59830;SDS011;45711;50.108;13.712;2022-11-23T08:43:34;59.58;;;19.27;;
59830;SDS011;45711;50.108;13.712;2022-11-23T08:46:00;61.22;;;19.38;;
59830;SDS011;45711;50.108;13.712;2022-11-23T08:48:26;51.75;;;19.27;;
59830;SDS011;45711;50.108;13.712;2022-11-23T08:50:52;54.70;;;18.88;;
59830;SDS011;45711;50.108;13.712;2022-11-23T08:53:18;55.92;;;19.95;;
59830;SDS011;45711;50.108;13.712;2022-11-23T08:55:44;58.22;;;19.83;;
59830;SDS011;45711;50.108;13.712;2022-11-23T08:58:13;52.72;;;19.30;;
59830;SDS011;45711;50.108;13.712;2022-11-23T09:00:39;51.63;;;18.15;;
59830;SDS011;45711;50.108;13.712;2022-11-23T09:03:04;53.85;;;19.02;;
59830;SDS011;45711;50.108;13.712;2022-11-23T09:05:30;45.50;;;17.15;;
59830;SDS011;45711;50.108;13.712;2022-11-23T09:07:58;48.58;;;18.40;;
59830;SDS011;45711;50.108;13.712;2022-11-23T09:10:24;48.03;;;18.42;;
59830;SDS011;45711;50.108;13.712;2022-11-23T09:12:49;43.08;;;17.35;;
59830;SDS011;45711;50.108;13.712;2022-11-23T09:15:17;53.20;;;18.73;;
59830;SDS011;45711;50.108;13.712;2022-11-23T09:17:43;42.15;;;17.67;;
59830;SDS011;45711;50.108;13.712;2022-11-23T09:20:09;44.42;;;17.35;;
59830;SDS011;45711;50.108;13.712;2022-11-23T09:22:34;37.17;;;16.05;;
59830;SDS011;45711;50.108;13.712;2022-11-23T09:25:00;47.55;;;16.70;;
59830;SDS011;45711;50.108;13.712;2022-11-23T09:27:26;39.92;;;15.75;;
59830;SDS011;45711;50.108;13.712;2022-11-23T09:29:52;35.15;;;15.55;;
59830;SDS011;45711;50.108;13.712;2022-11-23T09:32:18;37.45;;;16.55;;
59830;SDS011;45711;50.108;13.712;2022-11-23T09:34:44;38.00;;;15.77;;
59830;SDS011;45711;50.108;13.712;2022-11-23T09:37:09;38.85;;;15.32;;
59830;SDS011;45711;50.108;13.712;2022-11-23T09:39:35;39.70;;;17.00;;
59830;SDS011;45711;50.108;13.712;2022-11-23T09:42:04;34.55;;;15.88;;
59830;SDS011;45711;50.108;13.712;2022-11-23T09:44:51;35.95;;;15.18;;
59830;SDS011;45711;50.108;13.712;2022-11-23T09:47:32;34.22;;;15.27;;
59830;SDS011;45711;50.108;13.712;2022-11-23T09:50:09;41.58;;;16.13;;
59830;SDS011;45711;50.108;13.712;2022-11-23T09:52:39;36.25;;;15.32;;
59830;SDS011;45711;50.108;13.712;2022-11-23T09:55:10;39.72;;;15.35;;
59830;SDS011;45711;50.108;13.712;2022-11-23T09:57:40;37.83;;;15.65;;
59830;SDS011;45711;50.108;13.712;2022-11-23T10:00:15;42.67;;;17.08;;
59830;SDS011;45711;50.108;13.712;2022-11-23T10:02:44;32.95;;;14.70;;
59830;SDS011;45711;50.108;13.712;2022-11-23T10:05:10;35.20;;;15.40;;
59830;SDS011;45711;50.108;13.712;2022-11-23T10:07:44;32.10;;;14.10;;
59830;SDS011;45711;50.108;13.712;2022-11-23T10:10:23;36.05;;;15.10;;
59830;SDS011;45711;50.108;13.712;2022-11-23T10:13:00;34.70;;;16.52;;
59830;SDS011;45711;50.108;13.712;2022-11-23T10:15:38;38.10;;;16.92;;
59830;SDS011;45711;50.108;13.712;2022-11-23T10:18:20;38.47;;;17.35;;
59830;SDS011;45711;50.108;13.712;2022-11-23T10:20:55;31.83;;;15.52;;
59830;SDS011;45711;50.108;13.712;2022-11-23T10:23:27;34.30;;;15.63;;
59830;SDS011;45711;50.108;13.712;2022-11-23T10:26:05;36.08;;;16.75;;
59830;SDS011;45711;50.108;13.712;2022-11-23T10:28:33;39.08;;;16.25;;
59830;SDS011;45711;50.108;13.712;2022-11-23T10:31:00;38.53;;;16.30;;
59830;SDS011;45711;50.108;13.712;2022-11-23T10:33:38;37.25;;;16.20;;
59830;SDS011;45711;50.108;13.712;2022-11-23T10:36:12;40.75;;;16.17;;
59830;SDS011;45711;50.108;13.712;2022-11-23T10:38:38;35.15;;;15.10;;
59830;SDS011;45711;50.108;13.712;2022-11-23T10:41:04;37.67;;;16.40;;
59830;SDS011;45711;50.108;13.712;2022-11-23T10:43:34;38.88;;;16.48;;
59830;SDS011;45711;50.108;13.712;2022-11-23T10:46:22;38.25;;;16.77;;
59830;SDS011;45711;50.108;13.712;2022-11-23T10:49:06;42.83;;;16.17;;
59830;SDS011;45711;50.108;13.712;2022-11-23T10:51:34;32.45;;;13.88;;
59830;SDS011;45711;50.108;13.712;2022-11-23T10:54:02;37.13;;;16.75;;
59830;SDS011;45711;50.108;13.712;2022-11-23T10:56:29;38.60;;;16.13;;
59830;SDS011;45711;50.108;13.712;2022-11-23T10:58:55;38.47;;;16.23;;
59830;SDS011;45711;50.108;13.712;2022-11-23T11:01:22;39.90;;;17.20;;
59830;SDS011;45711;50.108;13.712;2022-11-23T11:03:49;39.80;;;16.83;;
59830;SDS011;45711;50.108;13.712;2022-11-23T11:06:21;36.20;;;16.67;;
59830;SDS011;45711;50.108;13.712;2022-11-23T11:08:48;38.75;;;16.88;;
59830;SDS011;45711;50.108;13.712;2022-11-23T11:11:23;38.55;;;18.40;;
59830;SDS011;45711;50.108;13.712;2022-11-23T11:13:52;38.80;;;17.00;;
59830;SDS011;45711;50.108;13.712;2022-11-23T11:16:26;43.67;;;18.55;;
59830;SDS011;45711;50.108;13.712;2022-11-23T11:18:57;44.55;;;18.20;;
59830;SDS011;45711;50.108;13.712;2022-11-23T11:21:26;42.75;;;17.73;;
59830;SDS011;45711;50.108;13.712;2022-11-23T11:23:57;40.87;;;18.73;;
59830;SDS011;45711;50.108;13.712;2022-11-23T11:26:26;31.55;;;14.45;;
59830;SDS011;45711;50.108;13.712;2022-11-23T11:28:54;36.42;;;16.55;;
59830;SDS011;45711;50.108;13.712;2022-11-23T11:31:30;39.63;;;17.23;;
59830;SDS011;45711;50.108;13.712;2022-11-23T11:34:09;46.17;;;19.17;;
59830;SDS011;45711;50.108;13.712;2022-11-23T11:36:46;52.03;;;22.08;;
59830;SDS011;45711;50.108;13.712;2022-11-23T11:39:21;31.58;;;14.60;;
59830;SDS011;45711;50.108;13.712;2022-11-23T11:41:51;51.50;;;22.52;;
59830;SDS011;45711;50.108;13.712;2022-11-23T11:47:09;26.35;;;12.55;;
59830;SDS011;45711;50.108;13.712;2022-11-23T11:49:45;53.17;;;24.40;;
59830;SDS011;45711;50.108;13.712;2022-11-23T11:52:16;62.28;;;25.55;;
59830;SDS011;45711;50.108;13.712;2022-11-23T11:54:48;57.55;;;25.40;;
59830;SDS011;45711;50.108;13.712;2022-11-23T11:57:19;51.53;;;22.50;;
59830;SDS011;45711;50.108;13.712;2022-11-23T11:59:47;50.13;;;22.85;;
59830;SDS011;45711;50.108;13.712;2022-11-23T12:02:18;49.47;;;23.45;;
59830;SDS011;45711;50.108;13.712;2022-11-23T12:04:49;53.10;;;23.92;;
59830;SDS011;45711;50.108;13.712;2022-11-23T12:07:23;55.88;;;23.13;;
59830;SDS011;45711;50.108;13.712;2022-11-23T12:09:54;57.78;;;25.00;;
59830;SDS011;45711;50.108;13.712;2022-11-23T12:14:53;50.60;;;22.85;;
59830;SDS011;45711;50.108;13.712;2022-11-23T12:17:29;49.63;;;23.08;;
59830;SDS011;45711;50.108;13.712;2022-11-23T12:20:07;36.55;;;17.20;;
59830;SDS011;45711;50.108;13.712;2022-11-23T12:25:15;67.90;;;25.88;;
59830;SDS011;45711;50.108;13.712;2022-11-23T12:27:53;48.55;;;23.63;;
59830;SDS011;45711;50.108;13.712;2022-11-23T12:30:28;60.05;;;26.33;;
59830;SDS011;45711;50.108;13.712;2022-11-23T12:33:04;54.05;;;25.20;;
59830;SDS011;45711;50.108;13.712;2022-11-23T12:35:53;59.03;;;25.08;;
59830;SDS011;45711;50.108;13.712;2022-11-23T12:38:33;41.47;;;19.27;;
59830;SDS011;45711;50.108;13.712;2022-11-23T12:41:13;55.00;;;24.25;;
59830;SDS011;45711;50.108;13.712;2022-11-23T12:43:49;50.17;;;22.08;;
59830;SDS011;45711;50.108;13.712;2022-11-23T12:46:24;43.90;;;20.40;;
59830;SDS011;45711;50.108;13.712;2022-11-23T12:49:04;47.00;;;19.63;;
59830;SDS011;45711;50.108;13.712;2022-11-23T12:51:43;36.70;;;17.05;;
59830;SDS011;45711;50.108;13.712;2022-11-23T12:57:11;50.30;;;21.90;;
59830;SDS011;45711;50.108;13.712;2022-11-23T12:59:43;61.85;;;23.92;;
59830;SDS011;45711;50.108;13.712;2022-11-23T13:02:15;52.38;;;22.55;;
59830;SDS011;45711;50.108;13.712;2022-11-23T13:05:05;50.83;;;22.65;;
59830;SDS011;45711;50.108;13.712;2022-11-23T13:10:57;44.55;;;17.75;;
59830;SDS011;45711;50.108;13.712;2022-11-23T13:13:34;47.25;;;18.20;;
59830;SDS011;45711;50.108;13.712;2022-11-23T13:16:19;40.70;;;18.42;;
59830;SDS011;45711;50.108;13.712;2022-11-23T13:18:52;32.92;;;15.32;;
59830;SDS011;45711;50.108;13.712;2022-11-23T13:21:29;30.30;;;14.57;;
59830;SDS011;45711;50.108;13.712;2022-11-23T13:23:59;30.92;;;14.43;;
59830;SDS011;45711;50.108;13.712;2022-11-23T13:26:26;30.63;;;13.63;;
59830;SDS011;45711;50.108;13.712;2022-11-23T13:28:53;31.58;;;13.50;;
59830;SDS011;45711;50.108;13.712;2022-11-23T13:31:27;27.92;;;12.95;;
59830;SDS011;45711;50.108;13.712;2022-11-23T13:33:55;27.95;;;12.70;;
59830;SDS011;45711;50.108;13.712;2022-11-23T13:36:41;33.03;;;14.48;;
59830;SDS011;45711;50.108;13.712;2022-11-23T13:42:21;37.65;;;16.42;;
59830;SDS011;45711;50.108;13.712;2022-11-23T13:45:02;35.17;;;17.08;;
59830;SDS011;45711;50.108;13.712;2022-11-23T13:47:41;37.78;;;15.75;;
59830;SDS011;45711;50.108;13.712;2022-11-23T13:50:27;37.90;;;14.93;;
59830;SDS011;45711;50.108;13.712;2022-11-23T13:52:53;35.50;;;15.73;;
59830;SDS011;45711;50.108;13.712;2022-11-23T13:55:19;31.30;;;15.25;;
59830;SDS011;45711;50.108;13.712;2022-11-23T14:00:55;33.40;;;15.60;;
59830;SDS011;45711;50.108;13.712;2022-11-23T14:06:15;32.30;;;13.93;;
59830;SDS011;45711;50.108;13.712;2022-11-23T14:08:50;30.10;;;14.43;;
59830;SDS011;45711;50.108;13.712;2022-11-23T14:11:20;33.22;;;14.55;;
59830;SDS011;45711;50.108;13.712;2022-11-23T14:13:52;36.85;;;14.82;;
59830;SDS011;45711;50.108;13.712;2022-11-23T14:16:27;28.25;;;15.05;;
59830;SDS011;45711;50.108;13.712;2022-11-23T14:19:14;36.20;;;15.15;;
59830;SDS011;45711;50.108;13.712;2022-11-23T14:21:47;28.58;;;13.85;;
59830;SDS011;45711;50.108;13.712;2022-11-23T14:24:33;48.17;;;15.35;;
59830;SDS011;45711;50.108;13.712;2022-11-23T14:27:20;30.38;;;14.68;;
59830;SDS011;45711;50.108;13.712;2022-11-23T14:29:58;33.47;;;14.48;;
59830;SDS011;45711;50.108;13.712;2022-11-23T14:32:43;29.20;;;13.68;;
59830;SDS011;45711;50.108;13.712;2022-11-23T14:35:23;31.17;;;14.70;;
59830;SDS011;45711;50.108;13.712;2022-11-23T14:40:58;36.58;;;16.63;;
59830;SDS011;45711;50.108;13.712;2022-11-23T14:43:28;34.47;;;15.13;;
59830;SDS011;45711;50.108;13.712;2022-11-23T14:45:58;43.80;;;17.52;;